AirNav   ProFlight Series 2 Aviation Headset
 
 396 users online  

VA99 Federhart-Ophelia Airport
Reedville, Virginia, USA

GOING TO REEDVILLE?


FAA INFORMATION EFFECTIVE 16 JULY 2020

Location

FAA Identifier: VA99
Lat/Long: 37-54-21.4630N 076-17-25.8000W
37-54.357717N 076-17.430000W
37.9059619,-76.2905000
(estimated)
Elevation: 13 ft. / 4 m (estimated)
Variation: 10W (1985)
From city: 4 miles N of REEDVILLE, VA
Time zone: UTC -4 (UTC -5 during Standard Time)
Zip code: 22473

Airport Operations

Airport use: Private use. Permission required prior to landing
Activation date: 02/1972
Control tower: no
ARTCC: WASHINGTON CENTER
FSS: LEESBURG FLIGHT SERVICE STATION
Attendance: UNATNDD
Wind indicator: yes
Segmented circle: no

Airport Communications

WX AWOS-3 at TGI (15 nm E): 119.8 (757-891-2246)
WX AWOS-3 at W75 (20 nm S): 118.45 (804-758-8592)

Nearby radio navigation aids

VOR radial/distance  VOR name  Freq  Var
PXTr177/23.5PATUXENT VORTAC117.6010W
HCMr043/33.9HARCUM VORTAC108.8007W
CCVr347/36.3CAPE CHARLES VORTAC112.2010W

 
NDB name  Hdg/Dist  Freq  Var  ID
PATUXENT177/23.440010WNHK -. .... -.-

Airport Services

Airframe service: NONE
Powerplant service: NONE

Runway Information

Runway N/S

Dimensions: 2200 x 80 ft. / 671 x 24 m
Surface: turf, in good condition
RUNWAY N  RUNWAY S
Traffic pattern: leftleft
Obstructions: 60 ft. trees, 150 ft. from runway
AND PLINE
70 ft. trees, 450 ft. from runway

Airport Ownership and Management from official FAA records

Ownership: Privately-owned
Owner: OPHELIA AIRSTRIP, LLC
C/O TRISTRAM HYDE, 278 TOLSTOY LANE
SEVERNA PARK, MD 21146-0247
Phone 410-384-7701
Manager: , 375 AIRSTRIP LANE
00247-0247

Airport Operational Statistics

Aircraft based on the field: 8
Single engine airplanes: 8
    
Aircraft operations: 125/year *
100% local general aviation
* for 12-month period ending 31 December 2019

Additional Remarks

DESIGNATED VA99.
FOR CD CTC WASHINGTON ARTCC AT 703-771-3587.
VFR DAY USE ONLY

Instrument Procedures

There are no published instrument procedures at VA99.

Some nearby airports with instrument procedures:

KTGI - Tangier Island Airport (15 nm E)
W75 - Hummel Field Airport (20 nm S)
W41 - Crisfield-Somerset County Airport (23 nm E)
KNHK - Patuxent River Naval Air Station (Trapnell Field) (24 nm N)
2W6 - St Mary's County Regional Airport (27 nm NW)
 
Loc | Ops | Rwys | IFR | FBO | Links
Com | Nav | Svcs | Stats | Notes
Area around VA99 (Federhart-Ophelia Airport)
 
Road maps at: MapQuest Bing Google
 
Aerial photo
WARNING: Photo may not be current or correct
Aerial photo of VA99 (Federhart-Ophelia Airport)
Photo taken 27-Mar-2006

Do you have a better or more recent aerial photo of Federhart-Ophelia Airport that you would like to share? If so, please send us your photo.

 
Sectional chart

 
Airport distance calculator
Flying to Federhart-Ophelia Airport? Find the distance to fly.

From to VA99

Sunrise and sunset
Times for 04-Aug-2020
 Local
(UTC-4)
 Zulu
(UTC)
Morning civil twilight05:4409:44
Sunrise06:1310:13
Sunset20:1000:10
Evening civil twilight20:3800:38

Current date and time
Zulu (UTC)  04-Aug-2020 06:35:07
Local (UTC-4)  04-Aug-2020 02:35:07
 
METAR
KNUI 
16nm NW 
040557Z AUTO VRB03KT 3SM +RA BR BKN033 OVC085 24/23 A2996 RMK AO2 P0001 T02390233 $
KW75 
20nm S 
040615Z AUTO 00000KT 5SM SCT010 BKN016 OVC022 23/23 A2993 RMK AO1 P0006 T02300230
KNHK 
22nm N 
040620Z AUTO 01006KT 4SM RA BR FEW021 BKN048 OVC080 23/23 A2996 RMK AO2 P0018 T02280228 VISNO RY24 $
K2W6 
27nm NW 
040615Z AUTO 00000KT 1 3/4SM BKN004 BKN015 OVC023 22/21 A3000 RMK AO1
KXSA 
29nm W 
040535Z AUTO 00000KT 10SM -RA 22/22 A3000 RMK AO2 P0003 T02220222
TAF
KNHK 
22nm N 
0323/0423 VRB06KT 9999 VCSH SCT040 BKN080 OVC130 QNH2995INS TEMPO 0323/0403 4800 SHRA BR FEW020 BKN030 OVC060 BECMG 0401/0403 21006KT 8000 -SHRA BR FEW012 BKN025 OVC060 QNH2990INS BECMG 0407/0409 14010G20KT 6000 SHRA SCT008 BKN010 OVC030 QNH2985INS BECMG 0410/0412 09025G45KT 4800 SHRA VCTS SCT008CB OVC015 QNH2955INS TEMPO 0412/0415 VRB35G50KT 1600 +SHRA BR VCTS OVC010CB BECMG 0413/0415 27022G45KT 2400 +SHRA BR VCTS SCT015CB OVC020 QNH2945INS BECMG 0416/0418 26012G22KT 8000 -SHRA BR BKN025 OVC040
NOTAMs
Click for the latest NOTAMs
NOTAMs are issued by the DoD/FAA and will open in a separate window not controlled by AirNav.

 

 
 

Would you like to see your business listed on this page?

 If your business provides an interesting product or service to pilots, flight crews, aircraft, or users of the Federhart-Ophelia Airport, you should consider listing it here.  To start the listing process, click on the button below
 
Add a business
 

Other Pages about Federhart-Ophelia Airport

Update a link
 
Copyright © AirNav, LLC. All rights reserved. Privacy Policy  Contact